createdAt,value
2023-04-08T00:01:45.948Z,1.30
2023-04-08T00:06:48.907Z,1.15
2023-04-08T00:11:53.250Z,1.00
2023-04-08T00:16:56.222Z,1.00
2023-04-08T00:21:59.275Z,0.90
2023-04-08T00:27:03.850Z,1.02
2023-04-08T00:32:07.351Z,0.93
2023-04-08T00:37:10.457Z,0.80
2023-04-08T00:42:14.680Z,0.90
2023-04-08T00:47:17.601Z,0.70
2023-04-08T00:52:20.644Z,0.70
2023-04-08T00:57:24.922Z,0.70
2023-04-08T01:02:36.814Z,0.75
2023-04-08T01:07:47.021Z,0.70
2023-04-08T01:12:54.960Z,0.60
2023-04-08T01:17:59.929Z,0.70
2023-04-08T01:23:14.225Z,0.90
2023-04-08T01:28:21.128Z,0.77
2023-04-08T01:33:25.231Z,0.70
2023-04-08T01:38:28.988Z,0.90
2023-04-08T01:43:35.233Z,0.77
2023-04-08T01:48:39.228Z,0.68
2023-04-08T01:53:44.191Z,0.70
2023-04-08T01:58:54.034Z,0.60
2023-04-08T02:03:58.992Z,0.70
2023-04-08T02:09:02.531Z,0.75
2023-04-08T02:14:07.038Z,0.90
2023-04-08T02:19:21.057Z,0.68
2023-04-08T02:24:23.963Z,0.80
2023-04-08T02:29:30.965Z,0.60
2023-04-08T02:34:35.960Z,0.50
2023-04-08T02:39:39.000Z,0.60
2023-04-08T02:44:43.303Z,0.77
2023-04-08T02:49:46.356Z,0.70
2023-04-08T02:54:49.262Z,0.70
2023-04-08T02:59:53.493Z,0.60
2023-04-08T03:04:56.390Z,0.57
2023-04-08T03:09:59.515Z,0.68
2023-04-08T03:15:07.511Z,0.80
2023-04-08T03:20:11.567Z,1.17
2023-04-08T03:25:14.472Z,0.60
2023-04-08T03:30:18.749Z,0.70
2023-04-08T03:35:21.765Z,0.60
2023-04-08T03:40:24.648Z,0.90
2023-04-08T03:45:28.853Z,0.90
2023-04-08T03:50:31.803Z,0.85
2023-04-08T03:55:34.634Z,0.80
2023-04-08T04:00:38.844Z,0.98
2023-04-08T04:05:42.093Z,0.77
2023-04-08T04:10:45.015Z,1.08
2023-04-08T04:15:49.288Z,1.02
2023-04-08T04:20:52.191Z,1.08
2023-04-08T04:25:55.149Z,0.85
2023-04-08T04:30:59.357Z,0.60
2023-04-08T04:36:02.347Z,0.70
2023-04-08T04:41:05.580Z,0.80
2023-04-08T04:46:09.826Z,0.80
2023-04-08T04:51:12.725Z,0.82
2023-04-08T04:56:15.671Z,0.80
2023-04-08T05:01:19.990Z,0.70
2023-04-08T05:06:24.343Z,0.98
2023-04-08T05:11:27.293Z,0.80
2023-04-08T05:16:31.900Z,0.93
2023-04-08T05:21:34.955Z,0.80
2023-04-08T05:26:38.788Z,0.77
2023-04-08T05:31:43.154Z,0.80
2023-04-08T05:36:46.276Z,0.75
2023-04-08T05:41:49.186Z,1.00
2023-04-08T05:46:53.501Z,1.00
2023-04-08T05:51:56.443Z,0.70
2023-04-08T05:56:59.339Z,0.60
2023-04-08T06:02:03.731Z,0.60
2023-04-08T06:07:08.460Z,0.63
2023-04-08T06:12:11.386Z,0.70
2023-04-08T06:17:15.705Z,0.70
2023-04-08T06:22:18.576Z,0.60
2023-04-08T06:27:21.522Z,0.90
2023-04-08T06:32:25.947Z,0.70
2023-04-08T06:37:28.843Z,0.80
2023-04-08T06:42:31.785Z,0.90
2023-04-08T06:47:36.136Z,0.95
2023-04-08T06:52:39.065Z,0.90
2023-04-08T06:57:41.985Z,0.80
2023-04-08T07:02:46.381Z,0.82
2023-04-08T07:07:49.426Z,1.00
2023-04-08T07:12:52.602Z,0.80
2023-04-08T07:17:57.384Z,1.00
2023-04-08T07:23:00.335Z,0.70
2023-04-08T07:28:03.191Z,0.93
2023-04-08T07:33:07.546Z,1.00
2023-04-08T07:38:11.630Z,0.88
2023-04-08T07:43:14.534Z,0.90
2023-04-08T07:48:18.770Z,1.00
2023-04-08T07:53:23.460Z,1.00
2023-04-08T07:58:26.893Z,1.88
2023-04-08T08:03:33.686Z,1.80
2023-04-08T08:08:37.098Z,1.40
2023-04-08T08:13:40.005Z,1.38
2023-04-08T08:18:44.268Z,1.15
2023-04-08T08:23:47.234Z,0.95
2023-04-08T08:28:50.116Z,2.53
2023-04-08T08:33:54.325Z,1.95
2023-04-08T08:38:57.167Z,1.40
2023-04-08T08:44:01.391Z,1.58
2023-04-08T08:49:06.039Z,1.38
2023-04-08T08:54:09.452Z,1.00
2023-04-08T08:59:13.132Z,4.07
2023-04-08T09:04:20.120Z,5.10
2023-04-08T09:09:24.177Z,3.80
2023-04-08T09:14:27.308Z,4.03
2023-04-08T09:19:31.627Z,4.55
2023-04-08T09:24:34.941Z,3.90
2023-04-08T09:29:40.069Z,4.93
2023-04-08T09:34:44.491Z,3.67
2023-04-08T09:39:47.430Z,3.92
2023-04-08T09:44:50.557Z,3.10
2023-04-08T09:49:59.272Z,2.92
2023-04-08T09:55:05.091Z,3.30
2023-04-08T10:00:12.468Z,6.93
2023-04-08T10:05:19.328Z,3.80
2023-04-08T10:10:22.704Z,3.42
2023-04-08T10:15:27.492Z,3.28
2023-04-08T10:20:45.102Z,3.15
2023-04-08T10:25:48.815Z,3.33
2023-04-08T10:30:52.511Z,2.83
2023-04-08T10:36:03.088Z,2.88
2023-04-08T10:41:06.342Z,2.90
2023-04-08T10:46:12.083Z,2.67
2023-04-08T10:51:17.642Z,4.80
2023-04-08T10:56:21.962Z,2.83
2023-04-08T11:01:25.137Z,2.65
2023-04-08T11:06:30.824Z,2.78
2023-04-08T11:11:33.792Z,2.35
2023-04-08T11:16:38.189Z,2.25
2023-04-08T11:21:42.662Z,2.30
2023-04-08T11:26:45.689Z,2.90
2023-04-08T11:31:49.622Z,3.97
2023-04-08T11:36:53.944Z,5.70
2023-04-08T11:41:57.486Z,3.10
2023-04-08T11:47:02.312Z,3.53
2023-04-08T11:52:07.521Z,4.07
2023-04-08T11:57:10.888Z,3.28
2023-04-08T12:02:13.788Z,3.38
2023-04-08T12:07:18.823Z,3.47
2023-04-08T12:12:21.720Z,2.83
2023-04-08T12:17:24.715Z,3.60
2023-04-08T12:22:29.113Z,3.17
2023-04-08T12:27:33.465Z,2.70
2023-04-08T12:32:36.378Z,4.32
2023-04-08T12:37:40.588Z,3.40
2023-04-08T12:42:43.405Z,2.70
2023-04-08T12:47:46.353Z,2.67
2023-04-08T12:52:50.522Z,2.88
2023-04-08T12:57:53.541Z,2.40
2023-04-08T13:02:56.456Z,2.90
2023-04-08T13:08:01.026Z,2.38
2023-04-08T13:13:03.867Z,3.25
2023-04-08T13:18:06.824Z,2.67
2023-04-08T13:23:11.182Z,2.80
2023-04-08T13:28:14.192Z,2.53
2023-04-08T13:33:17.579Z,2.25
2023-04-08T13:38:21.809Z,2.15
2023-04-08T13:43:24.622Z,2.55
2023-04-08T13:48:27.528Z,2.78
2023-04-08T13:53:31.730Z,2.15
2023-04-08T13:58:34.689Z,2.30
2023-04-08T14:03:37.723Z,2.90
2023-04-08T14:08:42.829Z,2.10
2023-04-08T14:13:45.681Z,2.22
2023-04-08T14:18:48.707Z,2.55
2023-04-08T14:23:53.070Z,2.03
2023-04-08T14:28:55.894Z,2.15
2023-04-08T14:33:58.770Z,2.13
2023-04-08T14:39:03.472Z,2.00
2023-04-08T14:44:06.663Z,2.10
2023-04-08T14:49:09.493Z,2.00
2023-04-08T14:54:14.146Z,3.85
2023-04-08T14:59:16.973Z,2.67
2023-04-08T15:04:19.914Z,2.70
2023-04-08T15:09:24.408Z,2.42
2023-04-08T15:14:27.361Z,2.10
2023-04-08T15:19:30.437Z,2.22
2023-04-08T15:24:34.647Z,5.20
2023-04-08T15:29:37.603Z,4.13
2023-04-08T15:34:40.591Z,3.13
2023-04-08T15:39:45.696Z,2.92
2023-04-08T15:44:48.892Z,3.45
2023-04-08T15:49:53.425Z,2.78
2023-04-08T15:54:57.771Z,3.05
2023-04-08T16:00:00.690Z,2.58
2023-04-08T16:05:03.708Z,2.45
2023-04-08T16:10:09.212Z,2.25
2023-04-08T16:15:12.400Z,2.53
2023-04-08T16:20:15.316Z,2.50
2023-04-08T16:25:19.577Z,4.25
2023-04-08T16:30:22.481Z,3.53
2023-04-08T16:35:25.496Z,2.92
2023-04-08T16:40:33.035Z,2.85
2023-04-08T16:45:36.107Z,2.78
2023-04-08T16:50:39.088Z,2.83
2023-04-08T16:55:43.303Z,2.65
2023-04-08T17:00:46.425Z,2.28
2023-04-08T17:05:49.400Z,4.43
2023-04-08T17:10:53.982Z,2.75
2023-04-08T17:15:56.792Z,2.60
2023-04-08T17:20:59.958Z,2.13
2023-04-08T17:26:08.316Z,2.42
2023-04-08T17:31:11.494Z,2.30
2023-04-08T17:36:15.710Z,1.95
2023-04-08T17:41:38.144Z,1.63
2023-04-08T17:46:42.605Z,2.10
2023-04-08T17:51:45.426Z,2.05
2023-04-08T17:56:49.715Z,1.80
2023-04-08T18:01:52.653Z,2.08
2023-04-08T18:06:56.566Z,1.90
2023-04-08T18:12:00.772Z,3.88
2023-04-08T18:17:04.452Z,2.70
2023-04-08T18:22:07.418Z,2.20
2023-04-08T18:27:11.662Z,2.03
2023-04-08T18:32:14.590Z,1.88
2023-04-08T18:37:19.925Z,1.90
2023-04-08T18:42:24.115Z,2.05
2023-04-08T18:47:27.009Z,1.70
2023-04-08T18:52:32.067Z,2.08
2023-04-08T18:57:36.242Z,1.38
2023-04-08T19:02:39.176Z,1.77
2023-04-08T19:07:42.069Z,1.98
2023-04-08T19:12:46.568Z,1.65
2023-04-08T19:17:49.855Z,1.40
2023-04-08T19:22:52.680Z,1.42
2023-04-08T19:27:56.909Z,1.60
2023-04-08T19:32:59.810Z,1.98
2023-04-08T19:38:02.732Z,1.70
2023-04-08T19:43:07.056Z,1.30
2023-04-08T19:48:10.005Z,1.60
2023-04-08T19:53:12.900Z,1.63
2023-04-08T19:58:17.728Z,1.50
2023-04-08T20:03:21.069Z,1.60
2023-04-08T20:08:24.123Z,1.60
2023-04-08T20:13:29.012Z,1.40
2023-04-08T20:18:32.218Z,1.50
2023-04-08T20:23:36.194Z,1.42
2023-04-08T20:28:40.762Z,1.25
2023-04-08T20:33:45.397Z,1.45
2023-04-08T20:38:48.226Z,2.05
2023-04-08T20:43:54.129Z,1.67
2023-04-08T20:48:57.286Z,1.60
2023-04-08T20:54:00.221Z,1.67
2023-04-08T20:59:04.465Z,1.70
2023-04-08T21:04:07.417Z,1.40
2023-04-08T21:09:11.350Z,1.40
2023-04-08T21:14:15.886Z,1.83
2023-04-08T21:19:18.805Z,1.90
2023-04-08T21:24:21.722Z,2.35
2023-04-08T21:29:25.902Z,1.70
2023-04-08T21:34:28.780Z,1.73
2023-04-08T21:39:31.740Z,1.70
2023-04-08T21:44:36.486Z,2.00
2023-04-08T21:49:39.351Z,1.80
2023-04-08T21:54:42.218Z,1.63
2023-04-08T21:59:46.414Z,2.15
2023-04-08T22:04:49.323Z,1.92
2023-04-08T22:09:52.348Z,2.20
2023-04-08T22:14:56.764Z,2.33
2023-04-08T22:19:59.613Z,2.05
2023-04-08T22:25:02.507Z,2.00
2023-04-08T22:30:08.250Z,1.95
2023-04-08T22:35:11.092Z,2.05
2023-04-08T22:40:14.087Z,1.70
2023-04-08T22:45:18.267Z,1.90
2023-04-08T22:50:21.816Z,1.92
2023-04-08T22:55:24.643Z,1.70
2023-04-08T23:00:29.868Z,1.98
2023-04-08T23:05:32.926Z,1.65
2023-04-08T23:10:35.928Z,2.08
2023-04-08T23:15:40.155Z,2.10
2023-04-08T23:20:47.429Z,2.00
2023-04-08T23:25:50.303Z,1.80
2023-04-08T23:30:55.092Z,1.90
2023-04-08T23:35:57.961Z,1.88
2023-04-08T23:41:01.298Z,2.15
2023-04-08T23:46:05.578Z,1.77
2023-04-08T23:51:08.436Z,1.85
2023-04-08T23:56:11.374Z,2.00
